createdAt,value
2023-10-20T00:00:04.696Z,51.216099
2023-10-20T00:01:04.779Z,51.216114
2023-10-20T00:02:04.706Z,51.216125
2023-10-20T00:03:04.709Z,51.216095
2023-10-20T00:04:04.760Z,51.216110
2023-10-20T00:05:04.667Z,51.216164
2023-10-20T00:06:04.645Z,51.216228
2023-10-20T00:07:04.651Z,51.216095
2023-10-20T00:08:04.806Z,51.216125
2023-10-20T00:09:04.648Z,51.216118
2023-10-20T00:10:04.634Z,51.216129
2023-10-20T00:11:04.657Z,51.216251
2023-10-20T00:12:04.609Z,51.216141
2023-10-20T00:13:04.622Z,51.216095
2023-10-20T00:14:04.649Z,51.216137
2023-10-20T00:15:04.580Z,51.216110
2023-10-20T00:16:04.606Z,51.216110
2023-10-20T00:17:04.613Z,51.216045
2023-10-20T00:18:04.609Z,51.216114
2023-10-20T00:19:04.567Z,51.216007
2023-10-20T00:20:04.558Z,51.216057
2023-10-20T00:21:04.566Z,51.216072
2023-10-20T00:22:04.540Z,51.215961
2023-10-20T00:23:04.564Z,51.216030
2023-10-20T00:24:04.524Z,51.216072
2023-10-20T00:25:04.506Z,51.216137
2023-10-20T00:26:04.556Z,51.216190
2023-10-20T00:27:04.509Z,51.216164
2023-10-20T00:28:04.552Z,51.216129
2023-10-20T00:29:04.541Z,51.216183
2023-10-20T00:30:04.479Z,51.216049
2023-10-20T00:31:04.484Z,51.216099
2023-10-20T00:32:04.473Z,51.216076
2023-10-20T00:33:04.544Z,51.216084
2023-10-20T00:34:04.474Z,51.216122
2023-10-20T00:35:04.494Z,51.216167
2023-10-20T00:36:04.451Z,51.216202
2023-10-20T00:37:04.430Z,51.216183
2023-10-20T00:38:04.456Z,51.216152
2023-10-20T00:39:04.421Z,51.216122
2023-10-20T00:40:04.429Z,51.216103
2023-10-20T00:41:04.543Z,51.216187
2023-10-20T00:42:04.406Z,51.216274
2023-10-20T00:43:04.401Z,51.216316
2023-10-20T00:44:04.477Z,51.216217
2023-10-20T00:45:04.380Z,51.216167
2023-10-20T00:46:04.517Z,51.216251
2023-10-20T00:47:04.391Z,51.216286
2023-10-20T00:48:04.389Z,51.216267
2023-10-20T00:49:04.437Z,51.216244
2023-10-20T00:50:04.361Z,51.216236
2023-10-20T00:51:04.356Z,51.216190
2023-10-20T00:52:04.336Z,51.216236
2023-10-20T00:53:04.355Z,51.216202
2023-10-20T00:54:04.320Z,51.216194
2023-10-20T00:55:04.312Z,51.216228
2023-10-20T00:56:04.352Z,51.216206
2023-10-20T00:57:04.319Z,51.216240
2023-10-20T00:58:04.296Z,51.216187
2023-10-20T00:59:04.350Z,51.216175
2023-10-20T01:00:04.278Z,51.216187
2023-10-20T01:01:04.299Z,51.216221
2023-10-20T01:02:04.305Z,51.216251
2023-10-20T01:03:04.366Z,51.216228
2023-10-20T01:04:04.438Z,51.216179
2023-10-20T01:05:04.256Z,51.216202
2023-10-20T01:06:04.242Z,51.216198
2023-10-20T01:07:04.232Z,51.216221
2023-10-20T01:08:04.230Z,51.216236
2023-10-20T01:09:04.258Z,51.216148
2023-10-20T01:10:04.213Z,51.216217
2023-10-20T01:11:04.216Z,51.216251
2023-10-20T01:12:04.206Z,51.216187
2023-10-20T01:13:04.218Z,51.216148
2023-10-20T01:14:04.212Z,51.216263
2023-10-20T01:15:04.181Z,51.216198
2023-10-20T01:16:04.211Z,51.216187
2023-10-20T01:17:04.193Z,51.216194
2023-10-20T01:18:04.209Z,51.216221
2023-10-20T01:19:04.167Z,51.216278
2023-10-20T01:20:04.227Z,51.216202
2023-10-20T01:21:04.128Z,51.216160
2023-10-20T01:22:04.126Z,51.216213
2023-10-20T01:23:04.126Z,51.216190
2023-10-20T01:24:04.136Z,51.216248
2023-10-20T01:25:04.119Z,51.216164
2023-10-20T01:26:04.127Z,51.216129
2023-10-20T01:27:04.086Z,51.216141
2023-10-20T01:28:04.080Z,51.216118
2023-10-20T01:29:04.117Z,51.216133
2023-10-20T01:30:04.075Z,51.216141
2023-10-20T01:31:04.054Z,51.216267
2023-10-20T01:32:04.062Z,51.216187
2023-10-20T01:33:04.139Z,51.216114
2023-10-20T01:34:04.072Z,51.216152
2023-10-20T01:35:04.100Z,51.216156
2023-10-20T01:36:04.040Z,51.216175
2023-10-20T01:37:04.005Z,51.216190
2023-10-20T01:38:05.122Z,51.216175
2023-10-20T01:39:03.992Z,51.216148
2023-10-20T01:40:04.002Z,51.216068
2023-10-20T01:41:04.005Z,51.216095
2023-10-20T01:42:03.977Z,51.216087
2023-10-20T01:43:03.966Z,51.216049
2023-10-20T01:44:03.963Z,51.216061
2023-10-20T01:45:03.973Z,51.216145
2023-10-20T01:46:03.943Z,51.216152
2023-10-20T01:47:04.016Z,51.216156
2023-10-20T01:48:03.977Z,51.216129
2023-10-20T01:49:03.923Z,51.216106
2023-10-20T01:50:03.961Z,51.216061
2023-10-20T01:51:03.922Z,51.216095
2023-10-20T01:52:03.897Z,51.216122
2023-10-20T01:53:03.994Z,51.216030
2023-10-20T01:54:03.876Z,51.216011
2023-10-20T01:55:03.967Z,51.216068
2023-10-20T01:56:03.910Z,51.216087
2023-10-20T01:57:03.851Z,51.216103
2023-10-20T01:58:03.856Z,51.216141
2023-10-20T01:59:03.876Z,51.216057
2023-10-20T02:00:03.840Z,51.216087
2023-10-20T02:01:03.873Z,51.216152
2023-10-20T02:02:03.909Z,51.216129
2023-10-20T02:03:03.975Z,51.216095
2023-10-20T02:04:03.848Z,51.215977
2023-10-20T02:05:03.816Z,51.216042
2023-10-20T02:06:03.808Z,51.215946
2023-10-20T02:07:03.780Z,51.216118
2023-10-20T02:08:03.839Z,51.216179
2023-10-20T02:09:03.779Z,51.216072
2023-10-20T02:10:03.782Z,51.216091
2023-10-20T02:11:03.781Z,51.216179
2023-10-20T02:12:03.751Z,51.216125
2023-10-20T02:13:03.743Z,51.216091
2023-10-20T02:14:03.764Z,51.216000
2023-10-20T02:15:03.746Z,51.215996
2023-10-20T02:16:03.734Z,51.216095
2023-10-20T02:17:03.874Z,51.215973
2023-10-20T02:18:03.785Z,51.215973
2023-10-20T02:19:03.707Z,51.216015
2023-10-20T02:20:03.728Z,51.216068
2023-10-20T02:21:03.703Z,51.216137
2023-10-20T02:22:03.689Z,51.216072
2023-10-20T02:23:03.723Z,51.215988
2023-10-20T02:24:03.667Z,51.215965
2023-10-20T02:25:03.674Z,51.215942
2023-10-20T02:26:03.676Z,51.216057
2023-10-20T02:27:03.695Z,51.216034
2023-10-20T02:28:03.634Z,51.215912
2023-10-20T02:29:03.666Z,51.215904
2023-10-20T02:30:03.619Z,51.216015
2023-10-20T02:31:03.650Z,51.216007
2023-10-20T02:32:03.826Z,51.216049
2023-10-20T02:33:03.678Z,51.216091
2023-10-20T02:34:03.592Z,51.216049
2023-10-20T02:35:03.637Z,51.216015
2023-10-20T02:36:03.580Z,51.216042
2023-10-20T02:37:03.581Z,51.216076
2023-10-20T02:38:03.580Z,51.216118
2023-10-20T02:39:03.560Z,51.216114
2023-10-20T02:40:03.565Z,51.216049
2023-10-20T02:41:03.570Z,51.216064
2023-10-20T02:42:03.552Z,51.216103
2023-10-20T02:43:03.542Z,51.216190
2023-10-20T02:44:03.536Z,51.216164
2023-10-20T02:45:03.511Z,51.216145
2023-10-20T02:46:03.513Z,51.216103
2023-10-20T02:47:03.534Z,51.216091
2023-10-20T02:48:03.510Z,51.216076
2023-10-20T02:49:03.489Z,51.215969
2023-10-20T02:50:03.509Z,51.215927
2023-10-20T02:51:03.481Z,51.215981
2023-10-20T02:52:03.463Z,51.215992
2023-10-20T02:53:03.495Z,51.215893
2023-10-20T02:54:03.453Z,51.215996
2023-10-20T02:55:03.476Z,51.216072
2023-10-20T02:56:03.450Z,51.216068
2023-10-20T02:57:04.437Z,51.216114
2023-10-20T02:58:03.431Z,51.216053
2023-10-20T02:59:03.467Z,51.216049
2023-10-20T03:00:03.404Z,51.216061
2023-10-20T03:01:03.450Z,51.216019
2023-10-20T03:02:03.464Z,51.215946
2023-10-20T03:03:03.482Z,51.215946
2023-10-20T03:04:03.492Z,51.216064
2023-10-20T03:05:03.496Z,51.216114
2023-10-20T03:06:03.369Z,51.216213
2023-10-20T03:07:03.376Z,51.216202
2023-10-20T03:08:03.404Z,51.216164
2023-10-20T03:09:03.361Z,51.216183
2023-10-20T03:10:03.332Z,51.216179
2023-10-20T03:11:03.336Z,51.216095
2023-10-20T03:12:03.324Z,51.216099
2023-10-20T03:13:03.320Z,51.216106
2023-10-20T03:14:03.341Z,51.216106
2023-10-20T03:15:03.309Z,51.216103
2023-10-20T03:16:03.310Z,51.216183
2023-10-20T03:17:03.469Z,51.216137
2023-10-20T03:18:03.268Z,51.216206
2023-10-20T03:19:03.259Z,51.216110
2023-10-20T03:20:03.265Z,51.216007
2023-10-20T03:21:03.357Z,51.216057
2023-10-20T03:22:03.262Z,51.216171
2023-10-20T03:23:03.254Z,51.216171
2023-10-20T03:24:03.229Z,51.216152
2023-10-20T03:25:03.220Z,51.216080
2023-10-20T03:26:03.288Z,51.216072
2023-10-20T03:27:03.250Z,51.216114
2023-10-20T03:28:03.228Z,51.216137
2023-10-20T03:29:03.255Z,51.216190
2023-10-20T03:30:03.188Z,51.216194
2023-10-20T03:31:03.204Z,51.216137
2023-10-20T03:32:03.237Z,51.216084
2023-10-20T03:33:03.208Z,51.216068
2023-10-20T03:34:03.144Z,51.216129
2023-10-20T03:35:03.213Z,51.216152
2023-10-20T03:36:03.166Z,51.216118
2023-10-20T03:37:03.130Z,51.216118
2023-10-20T03:38:03.143Z,51.216095
2023-10-20T03:39:03.151Z,51.216129
2023-10-20T03:40:03.121Z,51.216137
2023-10-20T03:41:03.106Z,51.216183
2023-10-20T03:42:03.100Z,51.216137
2023-10-20T03:43:03.089Z,51.216045
2023-10-20T03:44:03.096Z,51.216122
2023-10-20T03:45:03.077Z,51.216099
2023-10-20T03:46:03.087Z,51.216080
2023-10-20T03:47:03.088Z,51.216171
2023-10-20T03:48:03.138Z,51.216110
2023-10-20T03:49:03.075Z,51.216103
2023-10-20T03:50:03.032Z,51.215965
2023-10-20T03:51:03.047Z,51.215981
2023-10-20T03:52:03.038Z,51.216106
2023-10-20T03:53:03.087Z,51.216164
2023-10-20T03:54:03.010Z,51.216114
2023-10-20T03:55:03.041Z,51.216160
2023-10-20T03:56:03.078Z,51.216084
2023-10-20T03:57:02.999Z,51.216141
2023-10-20T03:58:02.977Z,51.215897
2023-10-20T03:59:02.985Z,51.216061
2023-10-20T04:00:02.965Z,51.216091
2023-10-20T04:01:02.965Z,51.216118
2023-10-20T04:02:03.121Z,51.216148
2023-10-20T04:03:03.073Z,51.216160
2023-10-20T04:04:02.999Z,51.216171
2023-10-20T04:05:02.969Z,51.216152
2023-10-20T04:06:02.944Z,51.216152
2023-10-20T04:07:02.921Z,51.216152
2023-10-20T04:08:02.950Z,51.216145
2023-10-20T04:09:02.907Z,51.216228
2023-10-20T04:10:02.907Z,51.216194
2023-10-20T04:11:02.925Z,51.216206
2023-10-20T04:12:02.890Z,51.216171
2023-10-20T04:13:02.877Z,51.216095
2023-10-20T04:14:02.888Z,51.216164
2023-10-20T04:15:02.868Z,51.216209
2023-10-20T04:16:02.882Z,51.216274
2023-10-20T04:17:02.888Z,51.216290
2023-10-20T04:18:02.903Z,51.216240
2023-10-20T04:19:02.839Z,51.216141
2023-10-20T04:20:02.848Z,51.216209
2023-10-20T04:21:02.826Z,51.216171
2023-10-20T04:22:02.810Z,51.216133
2023-10-20T04:23:02.814Z,51.216171
2023-10-20T04:24:02.786Z,51.216164
2023-10-20T04:25:02.788Z,51.216248
2023-10-20T04:26:02.804Z,51.216240
2023-10-20T04:27:06.153Z,51.216221
2023-10-20T04:28:02.763Z,51.216190
2023-10-20T04:29:02.761Z,51.216167
2023-10-20T04:30:02.751Z,51.216194
2023-10-20T04:31:03.749Z,51.216187
2023-10-20T04:32:02.759Z,51.216137
2023-10-20T04:33:02.751Z,51.216106
2023-10-20T04:34:02.710Z,51.216122
2023-10-20T04:35:02.715Z,51.216206
2023-10-20T04:36:02.742Z,51.216160
2023-10-20T04:37:02.687Z,51.216118
2023-10-20T04:38:02.693Z,51.216137
2023-10-20T04:39:02.691Z,51.216133
2023-10-20T04:40:02.713Z,51.216114
2023-10-20T04:41:02.695Z,51.216129
2023-10-20T04:42:02.677Z,51.216110
2023-10-20T04:43:02.645Z,51.216114
2023-10-20T04:44:02.646Z,51.216221
2023-10-20T04:45:02.636Z,51.216156
2023-10-20T04:46:02.717Z,51.216133
2023-10-20T04:47:02.618Z,51.216133
2023-10-20T04:48:02.697Z,51.216133
2023-10-20T04:49:02.643Z,51.216106
2023-10-20T04:50:02.598Z,51.216125
2023-10-20T04:51:02.581Z,51.216133
2023-10-20T04:52:02.603Z,51.216103
2023-10-20T04:53:02.586Z,51.216103
2023-10-20T04:54:02.554Z,51.216053
2023-10-20T04:55:02.557Z,51.215969
2023-10-20T04:56:02.549Z,51.216007
2023-10-20T04:57:02.560Z,51.216129
2023-10-20T04:58:02.540Z,51.215935
2023-10-20T04:59:02.538Z,51.216061
2023-10-20T05:00:02.516Z,51.216091
2023-10-20T05:01:02.591Z,51.215900
2023-10-20T05:02:02.536Z,51.216076
2023-10-20T05:03:02.592Z,51.216011
2023-10-20T05:04:02.547Z,51.216240
2023-10-20T05:05:02.473Z,51.216080
2023-10-20T05:06:02.486Z,51.216095
2023-10-20T05:07:02.479Z,51.215992
2023-10-20T05:08:02.478Z,51.215843
2023-10-20T05:09:02.465Z,51.215828
2023-10-20T05:10:02.459Z,51.216045
2023-10-20T05:11:02.454Z,51.216187
2023-10-20T05:12:02.439Z,51.216255
2023-10-20T05:13:02.430Z,51.216282
2023-10-20T05:14:02.419Z,51.216286
2023-10-20T05:15:02.442Z,51.216148
2023-10-20T05:16:02.488Z,51.216061
2023-10-20T05:17:02.414Z,51.216003
2023-10-20T05:18:02.457Z,51.216053
2023-10-20T05:19:02.488Z,51.216038
2023-10-20T05:20:02.373Z,51.216000
2023-10-20T05:21:02.373Z,51.216137
2023-10-20T05:22:02.376Z,51.216015
2023-10-20T05:23:02.358Z,51.215954
2023-10-20T05:24:02.656Z,51.216003
2023-10-20T05:25:02.347Z,51.215744
2023-10-20T05:26:02.333Z,51.215725
2023-10-20T05:27:02.326Z,51.215778
2023-10-20T05:28:02.323Z,51.215668
2023-10-20T05:29:02.378Z,51.215836
2023-10-20T05:30:02.340Z,51.216022
2023-10-20T05:31:02.296Z,51.215973
2023-10-20T05:32:02.294Z,51.216080
2023-10-20T05:33:02.405Z,51.216087
2023-10-20T05:34:02.274Z,51.216167
2023-10-20T05:35:02.281Z,51.216232
2023-10-20T05:36:02.277Z,51.216225
2023-10-20T05:37:02.256Z,51.216248
2023-10-20T05:38:02.257Z,51.216324
2023-10-20T05:39:02.255Z,51.216251
2023-10-20T05:40:02.252Z,51.216019
2023-10-20T05:41:02.248Z,51.216053
2023-10-20T05:42:02.233Z,51.216202
2023-10-20T05:43:02.221Z,51.216095
2023-10-20T05:44:02.302Z,51.216103
2023-10-20T05:45:03.073Z,51.216110
2023-10-20T05:46:03.294Z,51.216145
2023-10-20T05:47:02.224Z,51.216038
2023-10-20T05:48:02.414Z,51.215973
2023-10-20T05:49:02.220Z,51.216076
2023-10-20T05:50:02.208Z,51.216068
2023-10-20T05:51:02.219Z,51.216068
2023-10-20T05:52:02.199Z,51.216057
2023-10-20T05:53:02.171Z,51.216145
2023-10-20T05:54:02.153Z,51.216129
2023-10-20T05:55:02.152Z,51.216125
2023-10-20T05:56:02.169Z,51.216141
2023-10-20T05:57:02.156Z,51.216076
2023-10-20T05:58:02.154Z,51.216202
2023-10-20T05:59:02.122Z,51.216145
2023-10-20T06:00:02.123Z,51.216125
2023-10-20T06:01:03.453Z,51.216103
2023-10-20T06:02:03.116Z,51.216103
2023-10-20T06:03:04.443Z,51.216049
2023-10-20T06:04:02.216Z,51.216057
2023-10-20T06:05:02.088Z,51.216049
2023-10-20T06:06:02.172Z,51.216057
2023-10-20T06:07:02.079Z,51.216133
2023-10-20T06:08:02.062Z,51.216133
2023-10-20T06:09:02.062Z,51.216099
2023-10-20T06:10:02.055Z,51.216110
2023-10-20T06:11:02.066Z,51.216122
2023-10-20T06:12:02.040Z,51.216209
2023-10-20T06:13:02.033Z,51.216190
2023-10-20T06:14:02.028Z,51.216160
2023-10-20T06:15:02.038Z,51.216076
2023-10-20T06:16:02.060Z,51.216034
2023-10-20T06:17:01.996Z,51.216080
2023-10-20T06:18:02.129Z,51.216141
2023-10-20T06:19:02.021Z,51.216137
2023-10-20T06:20:01.981Z,51.216190
2023-10-20T06:21:01.973Z,51.216103
2023-10-20T06:22:01.972Z,51.216103
2023-10-20T06:23:01.958Z,51.216076
2023-10-20T06:24:02.129Z,51.216007
2023-10-20T06:25:01.946Z,51.216148
2023-10-20T06:26:01.943Z,51.216129
2023-10-20T06:27:01.932Z,51.216019
2023-10-20T06:28:01.935Z,51.216061
2023-10-20T06:29:01.954Z,51.216106
2023-10-20T06:30:01.942Z,51.216084
2023-10-20T06:31:02.299Z,51.216125
2023-10-20T06:32:01.938Z,51.215923
2023-10-20T06:33:02.025Z,51.215923
2023-10-20T06:34:02.158Z,51.216019
2023-10-20T06:35:01.886Z,51.215916
2023-10-20T06:36:01.877Z,51.215919
2023-10-20T06:37:01.859Z,51.216064
2023-10-20T06:38:01.845Z,51.216084
2023-10-20T06:39:01.846Z,51.216084
2023-10-20T06:40:01.837Z,51.216183
2023-10-20T06:41:01.820Z,51.215958
2023-10-20T06:42:01.811Z,51.215919
2023-10-20T06:43:01.809Z,51.215900
2023-10-20T06:44:01.821Z,51.215908
2023-10-20T06:45:01.802Z,51.216103
2023-10-20T06:46:01.899Z,51.216221
2023-10-20T06:47:01.778Z,51.216209
2023-10-20T06:48:01.886Z,51.216167
2023-10-20T06:49:01.780Z,51.216209
2023-10-20T06:50:01.765Z,51.216202
2023-10-20T06:51:01.748Z,51.216225
2023-10-20T06:52:01.755Z,51.216129
2023-10-20T06:53:01.748Z,51.216099
2023-10-20T06:54:01.774Z,51.216091
2023-10-20T06:57:02.762Z,51.216183
2023-10-20T06:58:01.718Z,51.216175
2023-10-20T06:59:01.712Z,51.216080
2023-10-20T07:00:01.677Z,51.216076
2023-10-20T07:01:01.702Z,51.216141
2023-10-20T07:02:01.878Z,51.216167
2023-10-20T07:03:01.739Z,51.216137
2023-10-20T07:04:01.683Z,51.216106
2023-10-20T07:05:01.649Z,51.216152
2023-10-20T07:06:01.655Z,51.216129
2023-10-20T07:07:01.645Z,51.216145
2023-10-20T07:08:01.630Z,51.216175
2023-10-20T07:09:01.629Z,51.216122
2023-10-20T07:10:01.653Z,51.216148
2023-10-20T07:11:01.612Z,51.216156
2023-10-20T07:12:01.598Z,51.216167
2023-10-20T07:13:01.593Z,51.216080
2023-10-20T07:14:01.589Z,51.216160
2023-10-20T07:15:01.600Z,51.216129
2023-10-20T07:16:01.772Z,51.216122
2023-10-20T07:17:01.574Z,51.216187
2023-10-20T07:18:01.645Z,51.216152
2023-10-20T07:19:01.555Z,51.216167
2023-10-20T07:20:01.551Z,51.216137
2023-10-20T07:21:01.611Z,51.216160
2023-10-20T07:22:01.555Z,51.216129
2023-10-20T07:23:01.520Z,51.216152
2023-10-20T07:24:01.525Z,51.216160
2023-10-20T07:25:01.510Z,51.216164
2023-10-20T07:26:01.516Z,51.216167
2023-10-20T07:27:01.505Z,51.216286
2023-10-20T07:28:01.546Z,51.216164
2023-10-20T07:29:01.496Z,51.216148
2023-10-20T07:30:01.510Z,51.216137
2023-10-20T07:31:01.486Z,51.216156
2023-10-20T07:32:01.479Z,51.216106
2023-10-20T07:33:01.620Z,51.216320
2023-10-20T07:34:01.455Z,51.216263
2023-10-20T07:35:01.455Z,51.216133
2023-10-20T07:36:01.441Z,51.216129
2023-10-20T07:37:01.438Z,51.216099
2023-10-20T07:38:01.436Z,51.216091
2023-10-20T07:39:01.433Z,51.216118
2023-10-20T07:40:01.437Z,51.216167
2023-10-20T07:41:01.423Z,51.216152
2023-10-20T07:42:01.418Z,51.216152
2023-10-20T07:43:01.395Z,51.216152
2023-10-20T07:44:01.382Z,51.216171
2023-10-20T07:45:01.412Z,51.216084
2023-10-20T07:46:01.423Z,51.216110
2023-10-20T07:47:01.374Z,51.216091
2023-10-20T07:48:02.088Z,51.216137
2023-10-20T07:49:01.345Z,51.216160
2023-10-20T07:50:01.375Z,51.216240
2023-10-20T07:51:01.377Z,51.216213
2023-10-20T07:52:02.644Z,51.216061
2023-10-20T07:53:01.323Z,51.216137
2023-10-20T07:54:01.325Z,51.216156
2023-10-20T07:55:01.312Z,51.216137
2023-10-20T07:56:01.315Z,51.216099
2023-10-20T07:57:01.299Z,51.216141
2023-10-20T07:58:01.321Z,51.216068
2023-10-20T07:59:01.301Z,51.216057
2023-10-20T08:00:01.299Z,51.216133
2023-10-20T08:01:01.325Z,51.216015
2023-10-20T08:02:01.371Z,51.216049
2023-10-20T08:03:01.501Z,51.216114
2023-10-20T08:04:01.387Z,51.216000
2023-10-20T08:05:01.479Z,51.216034
2023-10-20T08:06:01.541Z,51.216049
2023-10-20T08:07:01.806Z,51.216125
2023-10-20T08:08:01.234Z,51.216072
2023-10-20T08:09:01.220Z,51.216099
2023-10-20T08:10:01.234Z,51.216057
2023-10-20T08:11:01.209Z,51.216084
2023-10-20T08:12:01.205Z,51.216183
2023-10-20T08:13:01.190Z,51.216167
2023-10-20T08:14:01.201Z,51.216129
2023-10-20T08:15:01.209Z,51.216080
2023-10-20T08:16:01.260Z,51.216091
2023-10-20T08:17:01.177Z,51.216194
2023-10-20T08:18:01.301Z,51.216049
2023-10-20T08:19:01.164Z,51.216022
2023-10-20T08:20:01.439Z,51.216122
2023-10-20T08:21:01.152Z,51.216179
2023-10-20T08:22:01.154Z,51.216137
2023-10-20T08:23:01.134Z,51.216206
2023-10-20T08:24:01.157Z,51.216103
2023-10-20T08:25:01.140Z,51.216133
2023-10-20T08:26:01.118Z,51.216248
2023-10-20T08:27:01.108Z,51.216125
2023-10-20T08:28:01.109Z,51.216099
2023-10-20T08:29:01.094Z,51.216030
2023-10-20T08:30:01.089Z,51.216137
2023-10-20T08:31:01.102Z,51.216167
2023-10-20T08:32:01.062Z,51.216137
2023-10-20T08:33:02.143Z,51.216110
2023-10-20T08:34:01.064Z,51.216095
2023-10-20T08:35:01.060Z,51.216171
2023-10-20T08:36:01.210Z,51.216286
2023-10-20T08:37:01.033Z,51.216213
2023-10-20T08:38:01.061Z,51.216106
2023-10-20T08:39:01.020Z,51.216080
2023-10-20T08:40:01.032Z,51.216145
2023-10-20T08:41:12.376Z,51.216198
2023-10-20T08:42:03.011Z,51.216038
2023-10-20T08:43:00.999Z,51.216057
2023-10-20T08:44:01.027Z,51.216099
2023-10-20T08:45:00.992Z,51.216015
2023-10-20T08:46:01.031Z,51.216076
2023-10-20T08:47:00.976Z,51.216152
2023-10-20T08:48:01.088Z,51.216232
2023-10-20T08:49:00.952Z,51.216248
2023-10-20T08:50:00.954Z,51.216156
2023-10-20T08:51:00.996Z,51.216118
2023-10-20T08:52:00.927Z,51.216110
2023-10-20T08:53:00.934Z,51.216045
2023-10-20T08:54:00.989Z,51.216057
2023-10-20T08:55:00.958Z,51.216091
2023-10-20T08:56:00.916Z,51.216080
2023-10-20T08:57:00.909Z,51.216038
2023-10-20T08:58:00.926Z,51.216049
2023-10-20T08:59:00.925Z,51.216194
2023-10-20T09:00:00.893Z,51.216152
2023-10-20T09:01:00.934Z,51.216133
2023-10-20T09:02:00.921Z,51.216125
2023-10-20T09:03:00.994Z,51.216087
2023-10-20T09:04:00.974Z,51.216038
2023-10-20T09:05:00.852Z,51.216099
2023-10-20T09:06:00.879Z,51.216133
2023-10-20T09:07:00.836Z,51.216152
2023-10-20T09:08:00.840Z,51.216053
2023-10-20T09:09:00.988Z,51.216022
2023-10-20T09:10:00.841Z,51.216125
2023-10-20T09:11:00.817Z,51.216106
2023-10-20T09:12:00.824Z,51.216072
2023-10-20T09:13:00.809Z,51.215958
2023-10-20T09:14:00.795Z,51.216030
2023-10-20T09:15:00.806Z,51.216179
2023-10-20T09:16:00.795Z,51.216171
2023-10-20T09:17:00.806Z,51.216171
2023-10-20T09:18:02.578Z,51.216137
2023-10-20T09:19:00.768Z,51.216087
2023-10-20T09:20:00.754Z,51.216106
2023-10-20T09:21:00.797Z,51.216122
2023-10-20T09:22:00.759Z,51.216167
2023-10-20T09:23:00.729Z,51.216156
2023-10-20T09:24:02.634Z,51.216099
2023-10-20T09:25:03.488Z,51.216015
2023-10-20T09:26:04.267Z,51.215942
2023-10-20T09:27:00.712Z,51.216026
2023-10-20T09:28:00.750Z,51.215992
2023-10-20T09:29:00.766Z,51.216019
2023-10-20T09:30:00.697Z,51.216026
2023-10-20T09:31:00.737Z,51.215912
2023-10-20T09:32:00.690Z,51.215904
2023-10-20T09:33:00.728Z,51.215889
2023-10-20T09:34:00.687Z,51.215946
2023-10-20T09:35:00.659Z,51.216026
2023-10-20T09:36:00.676Z,51.216026
2023-10-20T09:37:00.656Z,51.216114
2023-10-20T09:38:00.640Z,51.216068
2023-10-20T09:39:00.641Z,51.216084
2023-10-20T09:40:00.634Z,51.216133
2023-10-20T09:41:00.628Z,51.216209
2023-10-20T09:42:00.611Z,51.216179
2023-10-20T09:43:07.757Z,51.216217
2023-10-20T09:44:02.645Z,51.216202
2023-10-20T09:45:00.656Z,51.216217
2023-10-20T09:46:00.588Z,51.216160
2023-10-20T09:47:00.628Z,51.216175
2023-10-20T09:48:00.614Z,51.216160
2023-10-20T09:49:00.562Z,51.216114
2023-10-20T09:50:00.587Z,51.216125
2023-10-20T09:53:58.892Z,51.216080
2023-10-20T09:54:58.889Z,51.216129
2023-10-20T09:55:58.945Z,51.216122
2023-10-20T09:57:00.626Z,51.216190
2023-10-20T09:58:01.981Z,51.216133
2023-10-20T09:58:58.861Z,51.216164
2023-10-20T09:59:58.880Z,51.216183
2023-10-20T10:00:58.887Z,51.216183
2023-10-20T10:01:58.914Z,51.216122
2023-10-20T10:02:58.946Z,51.216125
2023-10-20T10:03:58.863Z,51.216221
2023-10-20T10:04:58.812Z,51.216198
2023-10-20T10:05:58.861Z,51.216206
2023-10-20T10:06:58.808Z,51.216183
2023-10-20T10:07:58.795Z,51.216167
2023-10-20T10:08:58.791Z,51.216183
2023-10-20T10:09:58.771Z,51.216160
2023-10-20T10:10:58.767Z,51.216080
2023-10-20T10:11:58.781Z,51.216049
2023-10-20T10:12:58.760Z,51.216076
2023-10-20T10:13:58.747Z,51.216114
2023-10-20T10:14:58.789Z,51.216106
2023-10-20T10:15:58.730Z,51.216194
2023-10-20T10:17:00.350Z,51.216209
2023-10-20T10:18:00.887Z,51.216183
2023-10-20T10:19:01.715Z,51.216049
2023-10-20T10:19:58.697Z,51.216011
2023-10-20T10:20:58.702Z,51.216030
2023-10-20T10:21:58.704Z,51.216164
2023-10-20T10:22:58.673Z,51.216164
2023-10-20T10:23:58.682Z,51.216194
2023-10-20T10:24:58.678Z,51.216160
2023-10-20T10:25:58.692Z,51.216137
2023-10-20T10:26:58.828Z,51.216042
2023-10-20T10:27:58.662Z,51.216129
2023-10-20T10:28:58.645Z,51.216114
2023-10-20T10:29:58.703Z,51.216118
2023-10-20T10:30:58.665Z,51.216129
2023-10-20T10:32:09.213Z,51.216106
2023-10-20T10:33:00.703Z,51.216129
2023-10-20T10:33:58.747Z,51.216236
2023-10-20T10:34:58.691Z,51.216213
2023-10-20T10:35:58.647Z,51.216217
2023-10-20T10:36:58.594Z,51.216221
2023-10-20T10:37:58.593Z,51.216209
2023-10-20T10:38:58.628Z,51.216236
2023-10-20T10:39:58.614Z,51.216213
2023-10-20T10:40:58.569Z,51.216179
2023-10-20T10:41:58.559Z,51.216290
2023-10-20T10:42:58.577Z,51.216236
2023-10-20T10:43:58.550Z,51.216202
2023-10-20T10:44:58.625Z,51.216206
2023-10-20T10:45:58.530Z,51.216202
2023-10-20T10:49:46.915Z,51.216251
2023-10-20T10:50:44.868Z,51.216209
2023-10-20T10:51:44.809Z,51.216244
2023-10-20T10:52:44.771Z,51.216175
2023-10-20T10:53:44.795Z,51.216156
2023-10-20T10:54:44.757Z,51.216129
2023-10-20T10:55:44.868Z,51.216141
2023-10-20T10:56:45.036Z,51.216084
2023-10-20T10:57:44.740Z,51.216099
2023-10-20T10:58:44.719Z,51.216099
2023-10-20T10:59:44.870Z,51.216061
2023-10-20T11:00:44.762Z,51.216087
2023-10-20T11:01:44.694Z,51.216064
2023-10-20T11:02:44.882Z,51.215950
2023-10-20T11:03:44.740Z,51.216064
2023-10-20T11:04:44.747Z,51.216106
2023-10-20T11:05:44.710Z,51.216095
2023-10-20T11:06:44.700Z,51.216152
2023-10-20T11:07:44.666Z,51.216068
2023-10-20T11:08:44.740Z,51.216026
2023-10-20T11:09:44.654Z,51.216087
2023-10-20T11:10:44.787Z,51.216072
2023-10-20T11:11:44.670Z,51.216084
2023-10-20T11:12:44.629Z,51.216076
2023-10-20T11:13:44.616Z,51.216118
2023-10-20T11:14:44.666Z,51.216061
2023-10-20T11:15:44.620Z,51.216053
2023-10-20T11:16:44.624Z,51.216057
2023-10-20T11:17:44.781Z,51.216084
2023-10-20T11:18:44.665Z,51.216095
2023-10-20T11:19:44.882Z,51.216053
2023-10-20T11:20:44.645Z,51.216011
2023-10-20T11:21:44.571Z,51.215946
2023-10-20T11:22:45.581Z,51.216053
2023-10-20T11:23:44.588Z,51.216095
2023-10-20T11:24:44.547Z,51.215996
2023-10-20T11:25:44.666Z,51.215900
2023-10-20T11:26:44.542Z,51.216026
2023-10-20T11:27:44.599Z,51.216122
2023-10-20T11:28:44.517Z,51.216122
2023-10-20T11:29:57.667Z,51.216106
2023-10-20T11:30:46.823Z,51.216042
2023-10-20T11:31:44.504Z,51.216095